Latest Weather Observations for Inner Beacon

IDQ60801

Issued at 9:32 am EST Sunday 17 February 2019 (issued every 10 minutes, with the page automatically refreshed every 10 minutes)

About weather observations | Map of weather stations | Latest weather observations for QLD | Other Formats
Station Details ID: 040926 Name: INNER RECIPROCAL MARKER Lat: -27.26 Lon: 153.24 Height: 20.0 m
Data from the previous 72 hours. | See also: Recent months at Inner Beacon
Date/Time
EST
Temp
°C
App
Temp
°C
Dew
Point
°C
Rel
Hum
%
Delta-T
°C
Wind Press
QNH
hPa
Press
MSL
hPa
Rain since
9am
mm
Dir  Spd
km/h
Gust
km/h
Spd
kts
Gust
kts
17/09:30am - - - - - SSE 24 30 13 16 - - -
17/09:00am - - - - - S 24 30 13 16 - - -
17/08:30am - - - - - S 22 30 12 16 - - -
17/08:00am - - - - - S 24 28 13 15 - - -
17/07:30am - - - - - S 26 30 14 16 - - -
17/07:00am - - - - - S 24 28 13 15 - - -
17/06:30am - - - - - S 24 30 13 16 - - -
17/06:00am - - - - - SSW 26 30 14 16 - - -
17/05:30am - - - - - SSW 24 26 13 14 - - -
17/05:00am - - - - - S 24 28 13 15 - - -
17/04:30am - - - - - S 24 30 13 16 - - -
17/04:00am - - - - - S 24 30 13 16 - - -
17/03:30am - - - - - S 26 32 14 17 - - -
17/03:00am - - - - - S 24 28 13 15 - - -
17/02:30am - - - - - S 22 26 12 14 - - -
17/02:00am - - - - - S 22 26 12 14 - - -
17/01:30am - - - - - SSE 22 28 12 15 - - -
17/01:00am - - - - - SE 28 32 15 17 - - -
17/12:30am - - - - - SE 28 33 15 18 - - -
17/12:00am - - - - - SE 30 35 16 19 - - -
 
Date/Time
EST
Temp
°C
App
Temp
°C
Dew
Point
°C
Rel
Hum
%
Delta-T
°C
Wind Press
QNH
hPa
Press
MSL
hPa
Rain since
9am
mm
Dir  Spd
km/h
Gust
km/h
Spd
kts
Gust
kts
16/11:30pm - - - - - SE 30 35 16 19 - - -
16/11:00pm - - - - - SE 35 41 19 22 - - -
16/10:30pm - - - - - SE 33 41 18 22 - - -
16/10:00pm - - - - - SE 35 43 19 23 - - -
16/09:30pm - - - - - SE 35 43 19 23 - - -
16/09:00pm - - - - - SE 37 44 20 24 - - -
16/08:30pm - - - - - SE 35 41 19 22 - - -
16/08:00pm - - - - - SSE 35 41 19 22 - - -
16/07:30pm - - - - - SE 35 44 19 24 - - -
16/07:00pm - - - - - SE 37 46 20 25 - - -
16/06:30pm - - - - - SE 44 57 24 31 - - -
16/06:00pm - - - - - SSE 37 46 20 25 - - -
16/05:30pm - - - - - SSE 39 48 21 26 - - -
16/05:00pm - - - - - SE 28 33 15 18 - - -
16/04:30pm - - - - - SE 35 46 19 25 - - -
16/04:00pm - - - - - SE 30 39 16 21 - - -
16/03:32pm - - - - - SE 33 56 18 30 - - -
16/03:30pm - - - - - SE 32 39 17 21 - - -
16/03:00pm - - - - - SE 30 33 16 18 - - -
16/02:30pm - - - - - SE 28 33 15 18 - - -
16/02:00pm - - - - - SE 30 37 16 20 - - -
16/01:30pm - - - - - SSE 32 39 17 21 - - -
16/01:00pm - - - - - SE 28 33 15 18 - - -
16/12:30pm - - - - - SE 28 33 15 18 - - -
16/12:00pm - - - - - SE 26 33 14 18 - - -
16/11:30am - - - - - SE 24 30 13 16 - - -
16/11:00am - - - - - SSE 32 37 17 20 - - -
16/10:30am - - - - - SSE 30 37 16 20 - - -
16/10:00am - - - - - SE 37 44 20 24 - - -
16/09:30am - - - - - SSE 32 39 17 21 - - -
16/09:00am - - - - - SSE 32 41 17 22 - - -
16/08:30am - - - - - SSE 30 39 16 21 - - -
16/08:00am - - - - - S 33 39 18 21 - - -
16/07:30am - - - - - S 33 39 18 21 - - -
16/07:00am - - - - - S 32 37 17 20 - - -
16/06:30am - - - - - S 30 33 16 18 - - -
16/06:00am - - - - - S 30 35 16 19 - - -
16/05:30am - - - - - S 28 43 15 23 - - -
16/05:00am - - - - - S 30 35 16 19 - - -
16/04:30am - - - - - S 28 33 15 18 - - -
16/04:00am - - - - - S 32 43 17 23 - - -
16/03:30am - - - - - SSE 37 43 20 23 - - -
16/03:00am - - - - - SSE 35 43 19 23 - - -
16/02:30am - - - - - SSE 37 46 20 25 - - -
16/02:00am - - - - - SSE 41 48 22 26 - - -
16/01:30am - - - - - SSE 39 50 21 27 - - -
16/01:00am - - - - - SSE 43 52 23 28 - - -
16/12:30am - - - - - SE 39 50 21 27 - - -
16/12:28am - - - - - SSE 39 50 21 27 - - -
16/12:00am - - - - - S 32 43 17 23 - - -
 
Date/Time
EST
Temp
°C
App
Temp
°C
Dew
Point
°C
Rel
Hum
%
Delta-T
°C
Wind Press
QNH
hPa
Press
MSL
hPa
Rain since
9am
mm
Dir  Spd
km/h
Gust
km/h
Spd
kts
Gust
kts
15/11:30pm - - - - - S 33 41 18 22 - - -
15/11:00pm - - - - - SSE 41 46 22 25 - - -
15/10:30pm - - - - - SE 37 48 20 26 - - -
15/10:00pm - - - - - SSE 41 54 22 29 - - -
15/09:30pm - - - - - SSE 41 52 22 28 - - -
15/09:00pm - - - - - SSE 41 50 22 27 - - -
15/08:30pm - - - - - SSE 46 54 25 29 - - -
15/08:00pm - - - - - SSE 50 59 27 32 - - -
15/07:30pm - - - - - SSE 50 61 27 33 - - -
15/07:00pm - - - - - SSE 54 61 29 33 - - -
15/06:30pm - - - - - SE 52 61 28 33 - - -
15/06:00pm - - - - - SE 52 63 28 34 - - -
15/05:30pm - - - - - SE 48 61 26 33 - - -
15/05:00pm - - - - - SE 50 59 27 32 - - -
15/04:30pm - - - - - SE 46 57 25 31 - - -
15/04:00pm - - - - - SE 48 57 26 31 - - -
15/03:30pm - - - - - SE 46 54 25 29 - - -
15/03:00pm - - - - - SE 44 56 24 30 - - -
15/02:30pm - - - - - SSE 44 54 24 29 - - -
15/02:00pm - - - - - SSE 43 52 23 28 - - -
15/01:30pm - - - - - SSE 43 48 23 26 - - -
15/01:00pm - - - - - SSE 43 50 23 27 - - -
15/12:30pm - - - - - SSE 43 50 23 27 - - -
15/12:00pm - - - - - SSE 43 50 23 27 - - -
15/11:30am - - - - - SSE 43 50 23 27 - - -
15/11:00am - - - - - SSE 39 48 21 26 - - -
15/10:30am - - - - - SSE 41 52 22 28 - - -
15/10:00am - - - - - SSE 43 54 23 29 - - -
15/09:30am - - - - - SSE 44 52 24 28 - - -
15/09:00am - - - - - SSE 43 52 23 28 - - -
15/08:30am - - - - - SSE 41 50 22 27 - - -
15/08:00am - - - - - SSE 41 48 22 26 - - -
15/07:30am - - - - - SSE 41 46 22 25 - - -
15/07:00am - - - - - SSE 43 52 23 28 - - -
15/06:30am - - - - - SSE 41 48 22 26 - - -
15/06:00am - - - - - SSE 39 44 21 24 - - -
15/05:30am - - - - - SSE 37 44 20 24 - - -
15/05:00am - - - - - SSE 41 50 22 27 - - -
15/04:30am - - - - - SSE 39 46 21 25 - - -
15/04:00am - - - - - SSE 39 52 21 28 - - -
15/03:30am - - - - - SSE 48 57 26 31 - - -
15/03:00am - - - - - SSE 46 56 25 30 - - -
15/02:30am - - - - - SSE 43 52 23 28 - - -
15/02:00am - - - - - SSE 44 56 24 30 - - -
15/01:30am - - - - - SSE 44 54 24 29 - - -
15/01:00am - - - - - SSE 46 57 25 31 - - -
15/12:30am - - - - - SSE 50 59 27 32 - - -
15/12:00am - - - - - SSE 44 56 24 30 - - -
 
Date/Time
EST
Temp
°C
App
Temp
°C
Dew
Point
°C
Rel
Hum
%
Delta-T
°C
Wind Press
QNH
hPa
Press
MSL
hPa
Rain since
9am
mm
Dir  Spd
km/h
Gust
km/h
Spd
kts
Gust
kts
14/11:30pm - - - - - SSE 46 56 25 30 - - -
14/11:00pm - - - - - SSE 50 61 27 33 - - -
14/10:30pm - - - - - SSE 52 67 28 36 - - -
14/10:00pm - - - - - SSE 54 67 29 36 - - -
14/09:30pm - - - - - SSE 54 67 29 36 - - -
14/09:00pm - - - - - SSE 50 63 27 34 - - -
14/08:30pm - - - - - SSE 54 63 29 34 - - -
14/08:00pm - - - - - SSE 52 65 28 35 - - -
14/07:30pm - - - - - SSE 57 70 31 38 - - -
14/07:00pm - - - - - SSE 57 69 31 37 - - -
14/06:30pm - - - - - SSE 56 67 30 36 - - -
14/06:00pm - - - - - SSE 59 70 32 38 - - -
14/05:30pm - - - - - SSE 57 72 31 39 - - -
14/05:00pm - - - - - SSE 57 70 31 38 - - -
14/04:30pm - - - - - SSE 56 69 30 37 - - -
14/04:00pm - - - - - SSE 54 65 29 35 - - -
14/03:30pm - - - - - SSE 50 61 27 33 - - -
14/03:00pm - - - - - SSE 52 65 28 35 - - -
14/02:30pm - - - - - SSE 52 63 28 34 - - -
14/02:00pm - - - - - SSE 50 61 27 33 - - -
14/01:30pm - - - - - SSE 52 65 28 35 - - -
14/01:00pm - - - - - SSE 52 61 28 33 - - -
14/12:30pm - - - - - SSE 50 59 27 32 - - -
14/12:00pm - - - - - SSE 54 63 29 34 - - -
14/11:30am - - - - - SSE 54 63 29 34 - - -
14/11:00am - - - - - SSE 52 63 28 34 - - -
14/10:30am - - - - - SSE 54 65 29 35 - - -
14/10:00am - - - - - SSE 52 61 28 33 - - -

Other Formats:

Comma delimited format used in spreadsheet applications
http://www.bom.gov.au/fwo/IDQ60801/IDQ60801.94590.axf

JavaScript Object Notation format (JSON) in row-major order
http://www.bom.gov.au/fwo/IDQ60801/IDQ60801.94590.json